sensor_id;sensor_type;location;lat;lon;timestamp;P1;durP1;ratioP1;P2;durP2;ratioP2
18748;SDS011;9503;53.560;10.246;2023-03-01T07:02:33;9.47;;;5.50;;
18748;SDS011;9503;53.560;10.246;2023-03-01T07:04:59;8.70;;;5.43;;
18748;SDS011;9503;53.560;10.246;2023-03-01T07:07:26;12.13;;;5.83;;
18748;SDS011;9503;53.560;10.246;2023-03-01T07:09:52;10.07;;;5.63;;
18748;SDS011;9503;53.560;10.246;2023-03-01T07:12:19;12.77;;;5.93;;
18748;SDS011;9503;53.560;10.246;2023-03-01T07:14:46;12.90;;;6.57;;
18748;SDS011;9503;53.560;10.246;2023-03-01T07:17:12;16.40;;;7.20;;
18748;SDS011;9503;53.560;10.246;2023-03-01T07:19:40;18.13;;;8.07;;
18748;SDS011;9503;53.560;10.246;2023-03-01T07:22:07;14.93;;;7.30;;
18748;SDS011;9503;53.560;10.246;2023-03-01T07:24:34;15.83;;;7.23;;
18748;SDS011;9503;53.560;10.246;2023-03-01T07:27:01;12.67;;;6.63;;
18748;SDS011;9503;53.560;10.246;2023-03-01T07:29:27;21.70;;;10.83;;
18748;SDS011;9503;53.560;10.246;2023-03-01T07:31:54;14.33;;;7.23;;
18748;SDS011;9503;53.560;10.246;2023-03-01T07:34:21;17.30;;;6.93;;
18748;SDS011;9503;53.560;10.246;2023-03-01T07:36:49;20.93;;;8.07;;
18748;SDS011;9503;53.560;10.246;2023-03-01T07:39:16;14.53;;;7.47;;
18748;SDS011;9503;53.560;10.246;2023-03-01T07:41:42;23.17;;;8.47;;
18748;SDS011;9503;53.560;10.246;2023-03-01T07:44:09;16.27;;;8.03;;
18748;SDS011;9503;53.560;10.246;2023-03-01T07:46:36;17.90;;;8.43;;
18748;SDS011;9503;53.560;10.246;2023-03-01T07:49:02;18.20;;;8.47;;
18748;SDS011;9503;53.560;10.246;2023-03-01T07:51:29;13.63;;;8.23;;
18748;SDS011;9503;53.560;10.246;2023-03-01T07:53:57;18.50;;;7.90;;
18748;SDS011;9503;53.560;10.246;2023-03-01T07:56:24;17.73;;;8.37;;
18748;SDS011;9503;53.560;10.246;2023-03-01T07:58:50;17.20;;;8.77;;
18748;SDS011;9503;53.560;10.246;2023-03-01T08:01:18;16.30;;;8.27;;
18748;SDS011;9503;53.560;10.246;2023-03-01T08:03:45;15.60;;;8.07;;
18748;SDS011;9503;53.560;10.246;2023-03-01T08:06:13;15.73;;;8.70;;
18748;SDS011;9503;53.560;10.246;2023-03-01T08:08:42;14.97;;;8.13;;
18748;SDS011;9503;53.560;10.246;2023-03-01T08:11:11;18.73;;;9.77;;
18748;SDS011;9503;53.560;10.246;2023-03-01T08:13:39;17.17;;;8.97;;
18748;SDS011;9503;53.560;10.246;2023-03-01T08:16:07;18.70;;;9.50;;
18748;SDS011;9503;53.560;10.246;2023-03-01T08:18:36;16.57;;;8.93;;
18748;SDS011;9503;53.560;10.246;2023-03-01T08:21:03;18.73;;;9.70;;
18748;SDS011;9503;53.560;10.246;2023-03-01T08:23:30;18.07;;;8.90;;
18748;SDS011;9503;53.560;10.246;2023-03-01T08:26:03;16.60;;;9.53;;
18748;SDS011;9503;53.560;10.246;2023-03-01T08:28:32;16.23;;;9.60;;
18748;SDS011;9503;53.560;10.246;2023-03-01T08:30:59;21.03;;;9.93;;
18748;SDS011;9503;53.560;10.246;2023-03-01T08:33:25;20.07;;;9.37;;
18748;SDS011;9503;53.560;10.246;2023-03-01T08:35:52;15.20;;;9.23;;
18748;SDS011;9503;53.560;10.246;2023-03-01T08:38:27;18.67;;;9.27;;
18748;SDS011;9503;53.560;10.246;2023-03-01T08:40:54;17.93;;;9.13;;
18748;SDS011;9503;53.560;10.246;2023-03-01T08:43:21;18.40;;;10.53;;
18748;SDS011;9503;53.560;10.246;2023-03-01T08:45:51;19.50;;;10.20;;
18748;SDS011;9503;53.560;10.246;2023-03-01T08:48:17;15.80;;;10.17;;
18748;SDS011;9503;53.560;10.246;2023-03-01T08:50:44;19.20;;;9.87;;
18748;SDS011;9503;53.560;10.246;2023-03-01T08:53:10;17.03;;;9.83;;
18748;SDS011;9503;53.560;10.246;2023-03-01T08:55:37;17.97;;;9.73;;
18748;SDS011;9503;53.560;10.246;2023-03-01T08:58:04;20.07;;;10.57;;
18748;SDS011;9503;53.560;10.246;2023-03-01T09:00:31;17.73;;;10.67;;
18748;SDS011;9503;53.560;10.246;2023-03-01T09:03:01;20.73;;;11.50;;
18748;SDS011;9503;53.560;10.246;2023-03-01T09:05:27;21.23;;;11.67;;
18748;SDS011;9503;53.560;10.246;2023-03-01T09:07:57;20.10;;;10.23;;
18748;SDS011;9503;53.560;10.246;2023-03-01T09:10:23;21.10;;;10.30;;
18748;SDS011;9503;53.560;10.246;2023-03-01T09:12:50;20.13;;;10.20;;
18748;SDS011;9503;53.560;10.246;2023-03-01T09:15:17;17.40;;;9.97;;
18748;SDS011;9503;53.560;10.246;2023-03-01T09:17:44;21.57;;;10.40;;
18748;SDS011;9503;53.560;10.246;2023-03-01T09:20:12;19.50;;;10.60;;
18748;SDS011;9503;53.560;10.246;2023-03-01T09:22:38;17.77;;;11.03;;
18748;SDS011;9503;53.560;10.246;2023-03-01T09:25:05;27.13;;;10.77;;
18748;SDS011;9503;53.560;10.246;2023-03-01T09:27:32;19.23;;;10.90;;
18748;SDS011;9503;53.560;10.246;2023-03-01T09:29:59;19.23;;;10.27;;
18748;SDS011;9503;53.560;10.246;2023-03-01T09:32:26;20.20;;;11.43;;
18748;SDS011;9503;53.560;10.246;2023-03-01T09:34:52;22.77;;;10.90;;
18748;SDS011;9503;53.560;10.246;2023-03-01T09:37:31;19.40;;;11.07;;
18748;SDS011;9503;53.560;10.246;2023-03-01T09:39:58;21.87;;;11.20;;
18748;SDS011;9503;53.560;10.246;2023-03-01T09:42:25;16.87;;;10.07;;
18748;SDS011;9503;53.560;10.246;2023-03-01T09:44:54;21.60;;;11.03;;
18748;SDS011;9503;53.560;10.246;2023-03-01T09:47:26;17.77;;;10.80;;
18748;SDS011;9503;53.560;10.246;2023-03-01T09:49:58;20.53;;;10.97;;
18748;SDS011;9503;53.560;10.246;2023-03-01T09:52:34;16.33;;;10.30;;
18748;SDS011;9503;53.560;10.246;2023-03-01T09:55:08;14.23;;;9.13;;
18748;SDS011;9503;53.560;10.246;2023-03-01T09:57:38;16.77;;;9.07;;
18748;SDS011;9503;53.560;10.246;2023-03-01T10:00:13;16.07;;;9.37;;
18748;SDS011;9503;53.560;10.246;2023-03-01T10:02:47;18.77;;;10.37;;
18748;SDS011;9503;53.560;10.246;2023-03-01T10:05:21;17.60;;;9.87;;
18748;SDS011;9503;53.560;10.246;2023-03-01T10:08:12;21.20;;;9.60;;
18748;SDS011;9503;53.560;10.246;2023-03-01T10:10:49;18.70;;;9.43;;
18748;SDS011;9503;53.560;10.246;2023-03-01T10:13:19;16.80;;;9.03;;
18748;SDS011;9503;53.560;10.246;2023-03-01T10:15:50;16.03;;;9.27;;
18748;SDS011;9503;53.560;10.246;2023-03-01T10:18:21;14.27;;;8.80;;
18748;SDS011;9503;53.560;10.246;2023-03-01T10:20:52;17.53;;;9.17;;
18748;SDS011;9503;53.560;10.246;2023-03-01T10:23:23;13.60;;;9.43;;
18748;SDS011;9503;53.560;10.246;2023-03-01T10:25:56;14.77;;;9.47;;
18748;SDS011;9503;53.560;10.246;2023-03-01T10:28:35;14.70;;;9.80;;
18748;SDS011;9503;53.560;10.246;2023-03-01T10:31:11;17.37;;;9.47;;
18748;SDS011;9503;53.560;10.246;2023-03-01T10:33:39;17.37;;;8.77;;
18748;SDS011;9503;53.560;10.246;2023-03-01T10:36:07;14.20;;;8.77;;
18748;SDS011;9503;53.560;10.246;2023-03-01T10:38:48;16.47;;;9.60;;
18748;SDS011;9503;53.560;10.246;2023-03-01T10:41:19;17.20;;;9.40;;
18748;SDS011;9503;53.560;10.246;2023-03-01T10:43:49;18.33;;;9.47;;
18748;SDS011;9503;53.560;10.246;2023-03-01T10:46:24;17.27;;;9.00;;
18748;SDS011;9503;53.560;10.246;2023-03-01T10:51:41;15.93;;;8.73;;
18748;SDS011;9503;53.560;10.246;2023-03-01T10:54:16;13.47;;;9.17;;
18748;SDS011;9503;53.560;10.246;2023-03-01T10:56:45;17.17;;;10.07;;
18748;SDS011;9503;53.560;10.246;2023-03-01T10:59:20;16.67;;;8.90;;
18748;SDS011;9503;53.560;10.246;2023-03-01T11:02:01;17.07;;;8.73;;
18748;SDS011;9503;53.560;10.246;2023-03-01T11:04:30;11.50;;;7.60;;
18748;SDS011;9503;53.560;10.246;2023-03-01T11:07:00;12.00;;;7.30;;
18748;SDS011;9503;53.560;10.246;2023-03-01T11:09:32;11.83;;;7.63;;
18748;SDS011;9503;53.560;10.246;2023-03-01T11:12:03;15.23;;;7.73;;
18748;SDS011;9503;53.560;10.246;2023-03-01T11:14:39;15.63;;;7.60;;
18748;SDS011;9503;53.560;10.246;2023-03-01T11:17:15;11.57;;;6.77;;
18748;SDS011;9503;53.560;10.246;2023-03-01T11:19:44;14.80;;;8.03;;
18748;SDS011;9503;53.560;10.246;2023-03-01T11:22:28;12.40;;;7.90;;
18748;SDS011;9503;53.560;10.246;2023-03-01T11:25:00;16.00;;;9.27;;
18748;SDS011;9503;53.560;10.246;2023-03-01T11:27:29;13.73;;;8.20;;
18748;SDS011;9503;53.560;10.246;2023-03-01T11:29:59;12.73;;;8.13;;
18748;SDS011;9503;53.560;10.246;2023-03-01T11:32:30;13.33;;;8.07;;
18748;SDS011;9503;53.560;10.246;2023-03-01T11:35:03;14.50;;;8.27;;
18748;SDS011;9503;53.560;10.246;2023-03-01T11:37:37;15.00;;;8.50;;
18748;SDS011;9503;53.560;10.246;2023-03-01T11:40:13;13.73;;;8.50;;
18748;SDS011;9503;53.560;10.246;2023-03-01T11:42:49;12.70;;;8.03;;
18748;SDS011;9503;53.560;10.246;2023-03-01T11:45:23;14.63;;;9.43;;
18748;SDS011;9503;53.560;10.246;2023-03-01T11:47:58;12.90;;;8.63;;
18748;SDS011;9503;53.560;10.246;2023-03-01T11:50:35;11.53;;;8.20;;
18748;SDS011;9503;53.560;10.246;2023-03-01T11:53:16;13.07;;;8.30;;
18748;SDS011;9503;53.560;10.246;2023-03-01T11:56:08;14.30;;;8.40;;
18748;SDS011;9503;53.560;10.246;2023-03-01T11:58:49;12.87;;;8.03;;
18748;SDS011;9503;53.560;10.246;2023-03-01T12:01:32;15.30;;;7.97;;
18748;SDS011;9503;53.560;10.246;2023-03-01T12:04:20;12.70;;;7.73;;
18748;SDS011;9503;53.560;10.246;2023-03-01T12:07:08;11.23;;;7.90;;
18748;SDS011;9503;53.560;10.246;2023-03-01T12:09:45;10.97;;;7.73;;
18748;SDS011;9503;53.560;10.246;2023-03-01T12:12:27;15.27;;;8.70;;
18748;SDS011;9503;53.560;10.246;2023-03-01T12:15:11;11.40;;;6.30;;
18748;SDS011;9503;53.560;10.246;2023-03-01T12:18:07;10.00;;;6.50;;
18748;SDS011;9503;53.560;10.246;2023-03-01T12:20:44;13.27;;;7.73;;
18748;SDS011;9503;53.560;10.246;2023-03-01T12:23:25;10.77;;;7.33;;
18748;SDS011;9503;53.560;10.246;2023-03-01T12:26:06;12.23;;;7.33;;
18748;SDS011;9503;53.560;10.246;2023-03-01T12:31:48;11.97;;;6.87;;
18748;SDS011;9503;53.560;10.246;2023-03-01T12:34:38;9.77;;;6.40;;
18748;SDS011;9503;53.560;10.246;2023-03-01T12:37:25;10.13;;;6.00;;
18748;SDS011;9503;53.560;10.246;2023-03-01T12:40:03;8.13;;;5.87;;
18748;SDS011;9503;53.560;10.246;2023-03-01T12:42:48;9.63;;;5.90;;
18748;SDS011;9503;53.560;10.246;2023-03-01T12:48:22;10.57;;;6.43;;
18748;SDS011;9503;53.560;10.246;2023-03-01T12:50:57;10.63;;;6.10;;
18748;SDS011;9503;53.560;10.246;2023-03-01T12:53:28;10.37;;;5.90;;
18748;SDS011;9503;53.560;10.246;2023-03-01T12:55:59;10.00;;;6.43;;
18748;SDS011;9503;53.560;10.246;2023-03-01T12:58:29;8.50;;;6.07;;
18748;SDS011;9503;53.560;10.246;2023-03-01T13:03:57;9.83;;;6.27;;
18748;SDS011;9503;53.560;10.246;2023-03-01T13:06:34;6.93;;;4.47;;
18748;SDS011;9503;53.560;10.246;2023-03-01T13:09:09;10.60;;;6.27;;
18748;SDS011;9503;53.560;10.246;2023-03-01T13:11:45;9.40;;;5.90;;
18748;SDS011;9503;53.560;10.246;2023-03-01T13:17:02;9.27;;;5.30;;
18748;SDS011;9503;53.560;10.246;2023-03-01T13:19:29;10.57;;;5.73;;
18748;SDS011;9503;53.560;10.246;2023-03-01T13:21:57;9.17;;;5.93;;
18748;SDS011;9503;53.560;10.246;2023-03-01T13:24:25;10.63;;;5.93;;
18748;SDS011;9503;53.560;10.246;2023-03-01T13:27:08;11.40;;;6.57;;
18748;SDS011;9503;53.560;10.246;2023-03-01T13:29:43;10.17;;;6.40;;
18748;SDS011;9503;53.560;10.246;2023-03-01T13:32:20;9.70;;;5.50;;
18748;SDS011;9503;53.560;10.246;2023-03-01T13:34:52;8.83;;;5.87;;
18748;SDS011;9503;53.560;10.246;2023-03-01T13:37:27;8.00;;;5.50;;
18748;SDS011;9503;53.560;10.246;2023-03-01T13:43:27;8.20;;;5.17;;
18748;SDS011;9503;53.560;10.246;2023-03-01T13:45:56;9.33;;;5.37;;
18748;SDS011;9503;53.560;10.246;2023-03-01T13:48:26;9.17;;;5.53;;
18748;SDS011;9503;53.560;10.246;2023-03-01T13:50:55;7.43;;;5.37;;
18748;SDS011;9503;53.560;10.246;2023-03-01T13:53:26;8.57;;;5.57;;
18748;SDS011;9503;53.560;10.246;2023-03-01T13:55:58;9.67;;;5.33;;
18748;SDS011;9503;53.560;10.246;2023-03-01T13:58:28;7.50;;;4.70;;
18748;SDS011;9503;53.560;10.246;2023-03-01T14:00:57;6.93;;;4.70;;
18748;SDS011;9503;53.560;10.246;2023-03-01T14:03:27;9.27;;;5.37;;
18748;SDS011;9503;53.560;10.246;2023-03-01T14:06:03;8.53;;;5.07;;
18748;SDS011;9503;53.560;10.246;2023-03-01T14:08:33;7.93;;;4.60;;
18748;SDS011;9503;53.560;10.246;2023-03-01T14:11:13;6.73;;;4.67;;
18748;SDS011;9503;53.560;10.246;2023-03-01T14:14:10;5.47;;;4.23;;
18748;SDS011;9503;53.560;10.246;2023-03-01T14:16:51;6.83;;;4.43;;
18748;SDS011;9503;53.560;10.246;2023-03-01T14:19:29;7.10;;;4.60;;
18748;SDS011;9503;53.560;10.246;2023-03-01T14:21:58;6.70;;;4.73;;
18748;SDS011;9503;53.560;10.246;2023-03-01T14:24:28;8.03;;;5.13;;
18748;SDS011;9503;53.560;10.246;2023-03-01T14:26:57;6.97;;;5.20;;
18748;SDS011;9503;53.560;10.246;2023-03-01T14:29:27;7.83;;;4.70;;
18748;SDS011;9503;53.560;10.246;2023-03-01T14:32:08;5.90;;;4.33;;
18748;SDS011;9503;53.560;10.246;2023-03-01T14:34:43;6.87;;;5.10;;
18748;SDS011;9503;53.560;10.246;2023-03-01T14:37:15;4.40;;;3.63;;
18748;SDS011;9503;53.560;10.246;2023-03-01T14:39:45;5.60;;;4.47;;
18748;SDS011;9503;53.560;10.246;2023-03-01T14:42:12;6.73;;;4.57;;
18748;SDS011;9503;53.560;10.246;2023-03-01T14:44:40;5.80;;;4.67;;
18748;SDS011;9503;53.560;10.246;2023-03-01T14:47:10;6.27;;;4.47;;
18748;SDS011;9503;53.560;10.246;2023-03-01T14:49:39;6.30;;;4.10;;
18748;SDS011;9503;53.560;10.246;2023-03-01T14:52:17;5.97;;;4.13;;
18748;SDS011;9503;53.560;10.246;2023-03-01T14:54:46;5.67;;;4.13;;
18748;SDS011;9503;53.560;10.246;2023-03-01T14:57:15;5.13;;;3.83;;
18748;SDS011;9503;53.560;10.246;2023-03-01T14:59:43;4.90;;;4.10;;
18748;SDS011;9503;53.560;10.246;2023-03-01T15:02:11;5.93;;;4.07;;
18748;SDS011;9503;53.560;10.246;2023-03-01T15:04:42;5.87;;;4.33;;
18748;SDS011;9503;53.560;10.246;2023-03-01T15:07:13;7.23;;;4.37;;
18748;SDS011;9503;53.560;10.246;2023-03-01T15:09:40;6.90;;;5.17;;
18748;SDS011;9503;53.560;10.246;2023-03-01T15:17:48;6.07;;;4.50;;
18748;SDS011;9503;53.560;10.246;2023-03-01T15:20:20;6.07;;;4.23;;
18748;SDS011;9503;53.560;10.246;2023-03-01T15:22:52;6.30;;;4.47;;
18748;SDS011;9503;53.560;10.246;2023-03-01T15:25:21;5.17;;;3.90;;
18748;SDS011;9503;53.560;10.246;2023-03-01T15:27:51;5.33;;;3.77;;
18748;SDS011;9503;53.560;10.246;2023-03-01T15:30:20;6.50;;;3.73;;
18748;SDS011;9503;53.560;10.246;2023-03-01T15:33:15;5.90;;;4.20;;
18748;SDS011;9503;53.560;10.246;2023-03-01T15:35:44;8.53;;;5.07;;
18748;SDS011;9503;53.560;10.246;2023-03-01T15:38:27;7.00;;;4.80;;
18748;SDS011;9503;53.560;10.246;2023-03-01T15:40:59;9.60;;;4.73;;
18748;SDS011;9503;53.560;10.246;2023-03-01T15:43:39;7.93;;;4.53;;
18748;SDS011;9503;53.560;10.246;2023-03-01T15:46:21;6.83;;;5.03;;
18748;SDS011;9503;53.560;10.246;2023-03-01T15:48:51;10.03;;;5.63;;
18748;SDS011;9503;53.560;10.246;2023-03-01T15:51:22;8.90;;;5.50;;
18748;SDS011;9503;53.560;10.246;2023-03-01T15:53:57;7.33;;;5.33;;
18748;SDS011;9503;53.560;10.246;2023-03-01T15:56:27;7.90;;;5.20;;
18748;SDS011;9503;53.560;10.246;2023-03-01T15:58:57;6.90;;;4.90;;
18748;SDS011;9503;53.560;10.246;2023-03-01T16:01:24;9.57;;;4.93;;
18748;SDS011;9503;53.560;10.246;2023-03-01T16:03:51;5.83;;;4.73;;
18748;SDS011;9503;53.560;10.246;2023-03-01T16:06:18;7.33;;;4.47;;
18748;SDS011;9503;53.560;10.246;2023-03-01T16:08:45;7.50;;;4.40;;
18748;SDS011;9503;53.560;10.246;2023-03-01T16:11:15;8.00;;;4.63;;
18748;SDS011;9503;53.560;10.246;2023-03-01T16:13:43;6.30;;;4.00;;
18748;SDS011;9503;53.560;10.246;2023-03-01T16:16:10;7.43;;;4.93;;
18748;SDS011;9503;53.560;10.246;2023-03-01T16:18:40;5.30;;;4.07;;
18748;SDS011;9503;53.560;10.246;2023-03-01T16:21:08;6.70;;;4.13;;
18748;SDS011;9503;53.560;10.246;2023-03-01T16:23:38;8.10;;;4.17;;
18748;SDS011;9503;53.560;10.246;2023-03-01T16:26:04;5.57;;;3.73;;
18748;SDS011;9503;53.560;10.246;2023-03-01T16:28:32;7.03;;;4.47;;
18748;SDS011;9503;53.560;10.246;2023-03-01T16:30:59;6.07;;;4.20;;
18748;SDS011;9503;53.560;10.246;2023-03-01T16:33:26;7.30;;;4.13;;
18748;SDS011;9503;53.560;10.246;2023-03-01T16:35:53;6.20;;;4.30;;
18748;SDS011;9503;53.560;10.246;2023-03-01T16:38:19;6.70;;;4.90;;
18748;SDS011;9503;53.560;10.246;2023-03-01T16:40:46;9.00;;;5.00;;
18748;SDS011;9503;53.560;10.246;2023-03-01T16:43:14;7.73;;;4.67;;
18748;SDS011;9503;53.560;10.246;2023-03-01T16:45:42;6.80;;;4.50;;
18748;SDS011;9503;53.560;10.246;2023-03-01T16:48:11;7.60;;;4.50;;
18748;SDS011;9503;53.560;10.246;2023-03-01T16:50:38;7.77;;;4.93;;
18748;SDS011;9503;53.560;10.246;2023-03-01T16:53:04;9.47;;;4.87;;
18748;SDS011;9503;53.560;10.246;2023-03-01T16:55:31;6.60;;;4.47;;
18748;SDS011;9503;53.560;10.246;2023-03-01T16:57:58;7.43;;;4.30;;
18748;SDS011;9503;53.560;10.246;2023-03-01T17:00:25;7.47;;;4.77;;
18748;SDS011;9503;53.560;10.246;2023-03-01T17:02:53;10.30;;;5.10;;
18748;SDS011;9503;53.560;10.246;2023-03-01T17:05:19;7.23;;;4.40;;
18748;SDS011;9503;53.560;10.246;2023-03-01T17:07:48;8.73;;;4.77;;
18748;SDS011;9503;53.560;10.246;2023-03-01T17:10:15;11.40;;;5.60;;
18748;SDS011;9503;53.560;10.246;2023-03-01T17:12:42;8.90;;;5.70;;
18748;SDS011;9503;53.560;10.246;2023-03-01T17:15:09;9.37;;;5.17;;
18748;SDS011;9503;53.560;10.246;2023-03-01T17:17:36;9.33;;;5.60;;
18748;SDS011;9503;53.560;10.246;2023-03-01T17:20:05;9.37;;;5.60;;
18748;SDS011;9503;53.560;10.246;2023-03-01T17:22:32;11.37;;;6.13;;
18748;SDS011;9503;53.560;10.246;2023-03-01T17:24:59;9.97;;;5.90;;
18748;SDS011;9503;53.560;10.246;2023-03-01T17:27:26;9.80;;;5.40;;
18748;SDS011;9503;53.560;10.246;2023-03-01T17:29:52;9.93;;;5.73;;
18748;SDS011;9503;53.560;10.246;2023-03-01T17:32:19;8.97;;;5.77;;
18748;SDS011;9503;53.560;10.246;2023-03-01T17:34:46;8.63;;;5.87;;
18748;SDS011;9503;53.560;10.246;2023-03-01T17:37:13;11.40;;;6.40;;
18748;SDS011;9503;53.560;10.246;2023-03-01T17:39:40;11.87;;;6.07;;
18748;SDS011;9503;53.560;10.246;2023-03-01T17:42:07;11.37;;;5.83;;
18748;SDS011;9503;53.560;10.246;2023-03-01T17:44:33;10.70;;;6.60;;
18748;SDS011;9503;53.560;10.246;2023-03-01T17:47:01;11.57;;;7.33;;
18748;SDS011;9503;53.560;10.246;2023-03-01T17:49:28;14.40;;;7.60;;
18748;SDS011;9503;53.560;10.246;2023-03-01T17:51:55;11.80;;;7.80;;
18748;SDS011;9503;53.560;10.246;2023-03-01T17:54:24;16.27;;;9.30;;
18748;SDS011;9503;53.560;10.246;2023-03-01T17:56:51;15.30;;;7.83;;
18748;SDS011;9503;53.560;10.246;2023-03-01T17:59:17;15.50;;;8.43;;
